BXS weather

Borrego Valley Airport
Borrego Springs, California, United States

Public forecast

Using degrees Fahrenheit for public forecast. Weather courtesy of forecast.io.

METAR (pilot weather report)

Closest report is Jacqueline Cochran Regional Airport, 23.5 nm (43.5 km) NNE. Retrieved 2019/06/20 22:52 UTC (26 minutes ago):

KTRM 202252Z AUTO 32009KT 10SM CLR 41/11 A2961 RMK AO2 SLP030 T04110111

TAF (pilot weather forecast)

Closest forecast is Jacqueline Cochran Regional Airport, 23.5 nm (43.5 km) NNE. Retrieved 2019/06/20 18:36 UTC (5 hours ago):

TAF KTRM 201734Z 2018/2118 15007KT P6SM SKC FM202300 31012G22KT P6SM SKC FM210200 33018G30KT P6SM SKC FM210800 33012G22KT P6SM SKC FM211200 33010KT P6SM SKC